createdAt,value
2023-01-28T00:00:58.356Z,82.92
2023-01-28T00:06:03.139Z,84.31
2023-01-28T00:11:11.024Z,84.05
2023-01-28T00:16:14.759Z,85.69
2023-01-28T00:21:17.190Z,83.42
2023-01-28T00:26:19.376Z,84.23
2023-01-28T00:31:24.722Z,84.02
2023-01-28T00:36:28.242Z,84.46
2023-01-28T00:41:30.354Z,85.82
2023-01-28T00:46:33.793Z,85.92
2023-01-28T00:51:36.028Z,85.07
2023-01-28T00:56:38.148Z,85.57
2023-01-28T01:01:42.118Z,86.92
2023-01-28T01:06:44.269Z,87.24
2023-01-28T01:11:46.486Z,88.01
2023-01-28T01:16:49.951Z,87.99
2023-01-28T01:21:52.307Z,87.92
2023-01-28T01:26:54.584Z,88.03
2023-01-28T01:31:58.166Z,88.55
2023-01-28T01:37:00.283Z,88.52
2023-01-28T01:42:02.731Z,87.83
2023-01-28T01:47:06.786Z,88.19
2023-01-28T01:52:12.488Z,88.13
2023-01-28T01:57:20.075Z,89.47
2023-01-28T02:02:24.304Z,88.93
2023-01-28T02:07:27.527Z,88.82
2023-01-28T02:12:34.239Z,88.01
2023-01-28T02:17:38.919Z,85.35
2023-01-28T02:23:07.366Z,85.27
2023-01-28T02:28:20.203Z,84.73
2023-01-28T02:33:31.305Z,83.83
2023-01-28T02:38:39.937Z,85.06
2023-01-28T02:43:45.663Z,83.93
2023-01-28T02:48:47.876Z,84.02
2023-01-28T02:53:57.918Z,83.90
2023-01-28T02:59:06.575Z,84.96
2023-01-28T03:04:15.510Z,83.89
2023-01-28T03:09:19.754Z,83.44
2023-01-28T03:14:25.306Z,84.78
2023-01-28T03:19:27.424Z,85.06
2023-01-28T03:24:33.656Z,85.86
2023-01-28T03:29:37.956Z,86.07
2023-01-28T03:34:40.413Z,86.40
2023-01-28T03:39:42.433Z,86.51
2023-01-28T03:44:45.932Z,85.91
2023-01-28T03:49:49.850Z,86.41
2023-01-28T03:54:51.995Z,86.51
2023-01-28T03:59:55.515Z,86.00
2023-01-28T04:04:57.459Z,85.67
2023-01-28T04:09:59.139Z,86.64
2023-01-28T04:15:02.538Z,86.78
2023-01-28T04:20:05.258Z,86.19
2023-01-28T04:25:08.119Z,85.22
2023-01-28T04:30:12.423Z,86.01
2023-01-28T04:35:15.074Z,85.33
2023-01-28T04:40:17.887Z,85.17
2023-01-28T04:45:21.536Z,83.72
2023-01-28T04:50:23.670Z,83.58
2023-01-28T04:55:25.835Z,83.95
2023-01-28T05:00:29.392Z,83.08
2023-01-28T05:05:31.540Z,80.19
2023-01-28T05:10:33.531Z,80.09
2023-01-28T05:15:37.573Z,78.76
2023-01-28T05:20:39.696Z,79.52
2023-01-28T05:25:41.969Z,80.12
2023-01-28T05:30:45.658Z,80.50
2023-01-28T05:35:47.779Z,80.28
2023-01-28T05:40:50.013Z,79.89
2023-01-28T05:45:53.198Z,79.83
2023-01-28T05:50:55.427Z,80.19
2023-01-28T05:55:57.423Z,81.38
2023-01-28T06:01:00.537Z,81.36
2023-01-28T06:06:02.310Z,81.94
2023-01-28T06:11:04.309Z,82.22
2023-01-28T06:16:08.220Z,82.92
2023-01-28T06:21:10.342Z,83.04
2023-01-28T06:26:12.555Z,84.12
2023-01-28T06:31:16.052Z,84.48
2023-01-28T06:36:18.047Z,84.84
2023-01-28T06:41:20.114Z,85.45
2023-01-28T06:46:23.206Z,84.64
2023-01-28T06:51:24.885Z,84.56
2023-01-28T06:56:26.611Z,84.73
2023-01-28T07:01:30.428Z,84.90
2023-01-28T07:06:32.184Z,85.26
2023-01-28T07:11:33.979Z,83.76
2023-01-28T07:16:37.093Z,81.12
2023-01-28T07:21:39.222Z,82.16
2023-01-28T07:26:41.220Z,82.81
2023-01-28T07:31:44.718Z,81.14
2023-01-28T07:36:46.902Z,80.76
2023-01-28T07:41:49.148Z,82.51
2023-01-28T07:46:52.402Z,79.21
2023-01-28T07:51:54.204Z,73.15
2023-01-28T07:56:56.299Z,70.12
2023-01-28T08:01:59.382Z,71.25
2023-01-28T08:07:01.105Z,71.44
2023-01-28T08:12:03.295Z,69.55
2023-01-28T08:17:06.941Z,68.94
2023-01-28T08:22:08.674Z,70.31
2023-01-28T08:27:10.665Z,69.93
2023-01-28T08:32:13.839Z,68.09
2023-01-28T08:37:15.524Z,67.69
2023-01-28T08:42:19.545Z,67.41
2023-01-28T08:47:22.642Z,67.31
2023-01-28T08:52:24.349Z,67.22
2023-01-28T08:57:26.484Z,67.61
2023-01-28T09:02:32.212Z,67.96
2023-01-28T09:07:35.233Z,66.48
2023-01-28T09:12:37.848Z,66.46
2023-01-28T09:17:41.116Z,66.04
2023-01-28T09:22:42.962Z,66.23
2023-01-28T09:27:45.429Z,65.48
2023-01-28T09:32:51.711Z,66.52
2023-01-28T09:37:57.354Z,66.75
2023-01-28T09:43:15.029Z,64.87
2023-01-28T09:48:21.738Z,64.19
2023-01-28T09:53:27.769Z,63.81
2023-01-28T09:58:30.380Z,65.61
2023-01-28T10:03:47.771Z,62.34
2023-01-28T10:09:13.595Z,62.16
2023-01-28T10:14:27.001Z,63.11
2023-01-28T10:19:33.678Z,61.67
2023-01-28T10:24:40.179Z,62.85
2023-01-28T10:29:42.384Z,63.77
2023-01-28T10:34:46.050Z,63.95
2023-01-28T10:39:48.222Z,63.02
2023-01-28T10:44:51.438Z,63.23
2023-01-28T10:49:59.499Z,64.42
2023-01-28T10:55:03.877Z,64.66
2023-01-28T11:00:22.078Z,64.68
2023-01-28T11:05:27.714Z,64.83
2023-01-28T11:10:32.398Z,62.69
2023-01-28T11:15:34.844Z,63.52
2023-01-28T11:20:42.706Z,63.59
2023-01-28T11:25:44.603Z,63.68
2023-01-28T11:30:53.274Z,63.66
2023-01-28T11:36:03.907Z,64.71
2023-01-28T11:41:05.993Z,64.47
2023-01-28T11:46:21.394Z,64.16
2023-01-28T11:51:36.885Z,64.24
2023-01-28T11:56:53.513Z,64.59
2023-01-28T12:02:38.368Z,65.49
2023-01-28T12:07:47.685Z,64.59
2023-01-28T12:13:07.085Z,65.97
2023-01-28T12:18:22.320Z,65.75
2023-01-28T12:23:35.891Z,64.99
2023-01-28T12:28:54.118Z,65.51
2023-01-28T12:34:16.919Z,64.67
2023-01-28T12:39:34.853Z,65.30
2023-01-28T12:44:43.710Z,65.31
2023-01-28T12:49:50.793Z,66.17
2023-01-28T12:54:59.574Z,66.41
2023-01-28T13:00:16.209Z,67.13
2023-01-28T13:05:25.367Z,67.28
2023-01-28T13:10:36.019Z,66.93
2023-01-28T13:15:42.399Z,66.97
2023-01-28T13:20:49.467Z,67.08
2023-01-28T13:25:54.404Z,68.08
2023-01-28T13:31:03.131Z,65.66
2023-01-28T13:36:21.120Z,65.31
2023-01-28T13:41:24.455Z,65.79
2023-01-28T13:46:45.135Z,66.16
2023-01-28T13:58:42.237Z,66.01
2023-01-28T14:10:40.483Z,66.47
2023-01-28T14:21:50.911Z,67.17
2023-01-28T14:27:01.664Z,66.34
2023-01-28T14:32:06.103Z,66.87
2023-01-28T14:42:57.844Z,66.91
2023-01-28T15:06:45.005Z,65.20
2023-01-28T15:11:50.696Z,64.95
2023-01-28T15:16:54.972Z,65.41
2023-01-28T15:22:26.006Z,65.84
2023-01-28T15:27:29.968Z,66.70
2023-01-28T15:32:33.197Z,67.15
2023-01-28T15:37:35.716Z,68.26
2023-01-28T15:42:37.675Z,67.65
2023-01-28T15:47:40.918Z,68.10
2023-01-28T15:52:43.293Z,68.57
2023-01-28T15:57:45.136Z,68.62
2023-01-28T16:02:50.265Z,69.34
2023-01-28T16:07:53.624Z,70.45
2023-01-28T16:13:05.121Z,69.70
2023-01-28T16:18:22.798Z,69.42
2023-01-28T16:23:27.342Z,70.05
2023-01-28T16:28:29.695Z,70.08
2023-01-28T16:33:33.333Z,68.27
2023-01-28T16:38:35.374Z,68.66
2023-01-28T16:43:37.335Z,69.46
2023-01-28T16:48:40.699Z,69.63
2023-01-28T16:53:43.663Z,69.69
2023-01-28T16:58:46.966Z,69.88
2023-01-28T17:03:50.225Z,71.15
2023-01-28T17:08:53.372Z,71.84
2023-01-28T17:13:55.601Z,71.72
2023-01-28T17:18:58.707Z,71.11
2023-01-28T17:24:01.081Z,71.22
2023-01-28T17:29:03.826Z,70.56
2023-01-28T17:34:06.934Z,70.25
2023-01-28T17:39:09.393Z,70.74
2023-01-28T17:44:13.856Z,70.56
2023-01-28T17:49:18.503Z,71.17
2023-01-28T17:54:23.725Z,70.83
2023-01-28T17:59:26.638Z,70.41
2023-01-28T18:04:30.168Z,71.17
2023-01-28T18:09:31.871Z,71.79
2023-01-28T18:14:34.285Z,72.35
2023-01-28T18:19:46.606Z,71.86
2023-01-28T18:24:48.329Z,71.26
2023-01-28T18:29:50.135Z,72.14
2023-01-28T18:34:53.617Z,71.39
2023-01-28T18:39:56.132Z,72.53
2023-01-28T18:44:59.274Z,73.85
2023-01-28T18:50:04.287Z,74.59
2023-01-28T18:55:07.317Z,75.84
2023-01-28T19:00:10.946Z,76.40
2023-01-28T19:05:14.384Z,77.11
2023-01-28T19:10:16.529Z,77.14
2023-01-28T19:15:18.522Z,77.89
2023-01-28T19:20:21.815Z,77.53
2023-01-28T19:25:51.479Z,78.15
2023-01-28T19:30:53.273Z,78.90
2023-01-28T19:42:10.467Z,79.70
2023-01-28T19:47:12.654Z,79.76
2023-01-28T19:52:14.585Z,79.97
2023-01-28T19:57:17.667Z,80.06
2023-01-28T20:02:19.450Z,80.71
2023-01-28T20:07:39.673Z,80.83
2023-01-28T20:12:42.952Z,81.53
2023-01-28T20:17:44.813Z,82.77
2023-01-28T20:22:47.235Z,82.83
2023-01-28T20:27:50.763Z,83.08
2023-01-28T20:32:52.539Z,83.20
2023-01-28T20:38:16.440Z,83.49
2023-01-28T20:43:50.355Z,83.88
2023-01-28T20:54:35.452Z,84.89
2023-01-28T20:59:38.767Z,85.56
2023-01-28T21:04:41.043Z,85.66
2023-01-28T21:09:43.253Z,85.31
2023-01-28T21:14:46.399Z,85.75
2023-01-28T21:20:07.889Z,85.21
2023-01-28T21:25:23.132Z,85.08
2023-01-28T21:30:26.999Z,85.48
2023-01-28T21:41:57.197Z,86.67
2023-01-28T21:47:18.973Z,87.73
2023-01-28T21:52:26.557Z,87.69
2023-01-28T21:57:28.394Z,88.46
2023-01-28T22:02:44.255Z,88.34
2023-01-28T22:07:48.419Z,89.20
2023-01-28T22:12:51.312Z,89.39
2023-01-28T22:17:54.736Z,89.64
2023-01-28T22:22:56.820Z,89.91
2023-01-28T22:27:58.653Z,89.94
2023-01-28T22:33:01.759Z,89.93
2023-01-28T22:38:19.929Z,89.36
2023-01-28T22:43:21.637Z,88.51
2023-01-28T22:48:25.343Z,88.01
2023-01-28T22:53:27.438Z,87.48
2023-01-28T22:58:31.534Z,87.48
2023-01-28T23:03:36.114Z,87.38
2023-01-28T23:08:37.863Z,87.38
2023-01-28T23:13:39.842Z,87.92
2023-01-28T23:18:43.005Z,87.84
2023-01-28T23:23:44.791Z,87.92
2023-01-28T23:28:46.589Z,87.73
2023-01-28T23:33:50.155Z,87.80
2023-01-28T23:38:52.331Z,87.22
2023-01-28T23:43:54.750Z,86.73
2023-01-28T23:48:58.389Z,86.69
2023-01-28T23:54:00.537Z,86.35
2023-01-28T23:59:03.006Z,85.80
